Time;durP1;ratioP1;P1;durP2;ratioP2;P2;SDS_P1;SDS_P2;PMS_P1;PMS_P2;Temp;Humidity;BMP_temperature;BMP_pressure;BME280_temperature;BME280_humidity;BME280_pressure;Samples;Min_cycle;Max_cycle;Signal;HPM_P1;HPM_P2
2022/05/17 00:00:25;;;;;;;4.43;2.38;;;;;;;;;;5157293;27;20019;-74
2022/05/17 00:02:57;;;;;;;4.57;2.50;;;;;;;;;;5155974;27;20031;-74
2022/05/17 00:05:28;;;;;;;4.75;2.50;;;;;;;;;;5156508;27;20035;-74
2022/05/17 00:07:58;;;;;;;6.43;2.35;;;;;;;;;;5156198;27;20027;-74
2022/05/17 00:10:28;;;;;;;5.97;2.40;;;;;;;;;;5138050;27;20062;-72
2022/05/17 00:12:58;;;;;;;5.60;2.33;;;;;;;;;;5130916;27;20039;-72
2022/05/17 00:15:29;;;;;;;6.07;2.60;;;;;;;;;;5129549;27;20523;-71
2022/05/17 00:17:59;;;;;;;4.18;2.22;;;;;;;;;;5131262;27;20520;-72
2022/05/17 00:20:29;;;;;;;4.85;2.20;;;;;;;;;;5134389;27;20043;-70
2022/05/17 00:22:59;;;;;;;4.18;2.53;;;;;;;;;;5129809;27;20051;-73
2022/05/17 00:25:30;;;;;;;5.07;2.03;;;;;;;;;;5131279;27;20051;-73
2022/05/17 00:28:00;;;;;;;2.92;1.80;;;;;;;;;;5129724;27;20413;-73
2022/05/17 00:30:31;;;;;;;4.50;1.95;;;;;;;;;;5130053;27;20062;-73
2022/05/17 00:33:02;;;;;;;4.65;1.88;;;;;;;;;;5129318;27;20039;-72
2022/05/17 00:35:32;;;;;;;4.10;2.10;;;;;;;;;;5129817;27;20047;-72
2022/05/17 00:38:02;;;;;;;4.43;2.22;;;;;;;;;;5128879;27;20050;-73
2022/05/17 00:40:32;;;;;;;5.63;1.50;;;;;;;;;;5129150;27;20054;-72
2022/05/17 00:43:09;;;;;;;5.07;1.52;;;;;;;;;;5129404;27;20429;-74
2022/05/17 00:45:45;;;;;;;4.05;1.60;;;;;;;;;;5130112;27;20039;-73
2022/05/17 00:48:18;;;;;;;4.47;1.67;;;;;;;;;;5129807;27;20039;-73
2022/05/17 00:50:51;;;;;;;3.75;1.55;;;;;;;;;;5129535;27;20038;-73
2022/05/17 00:53:31;;;;;;;2.45;1.40;;;;;;;;;;5129606;27;20051;-73
2022/05/17 00:56:04;;;;;;;4.05;1.60;;;;;;;;;;5127215;27;20058;-74
2022/05/17 00:58:47;;;;;;;4.05;1.50;;;;;;;;;;5129291;27;20043;-74
2022/05/17 01:01:21;;;;;;;1.60;1.48;;;;;;;;;;5128235;27;20043;-73
2022/05/17 01:04:05;;;;;;;2.67;1.10;;;;;;;;;;5128636;27;20395;-73
2022/05/17 01:06:43;;;;;;;1.63;1.17;;;;;;;;;;5129507;27;20417;-74
2022/05/17 01:09:13;;;;;;;1.65;1.10;;;;;;;;;;5128839;27;20058;-74
2022/05/17 01:11:44;;;;;;;1.17;0.90;;;;;;;;;;5128958;27;20778;-72
2022/05/17 01:17:03;;;;;;;2.88;1.00;;;;;;;;;;5128498;27;20039;-73
2022/05/17 01:19:34;;;;;;;1.92;0.85;;;;;;;;;;5128217;27;20043;-74
2022/05/17 01:22:04;;;;;;;1.20;0.82;;;;;;;;;;5128263;27;20047;-74
2022/05/17 01:24:33;;;;;;;4.32;0.80;;;;;;;;;;5128085;27;20051;-73
2022/05/17 01:27:32;;;;;;;0.80;0.60;;;;;;;;;;5126358;27;20047;-73
2022/05/17 01:30:03;;;;;;;1.10;0.70;;;;;;;;;;5126625;27;20048;-73
2022/05/17 01:32:34;;;;;;;;;;;;;;;;;;5127665;27;20514;-73
2022/05/17 01:35:04;;;;;;;1.58;0.80;;;;;;;;;;5127343;27;19923;-73
2022/05/17 01:37:33;;;;;;;3.53;1.25;;;;;;;;;;5127811;27;20413;-73
2022/05/17 01:40:04;;;;;;;0.98;0.63;;;;;;;;;;5127849;27;20043;-73
2022/05/17 01:42:34;;;;;;;2.92;0.93;;;;;;;;;;5126669;27;20054;-74
2022/05/17 01:45:06;;;;;;;2.47;0.82;;;;;;;;;;5128053;27;20051;-73
2022/05/17 01:47:36;;;;;;;1.33;0.95;;;;;;;;;;5127567;27;20051;-74
2022/05/17 01:50:06;;;;;;;1.58;1.00;;;;;;;;;;5128701;27;20043;-73
2022/05/17 01:52:36;;;;;;;5.20;1.20;;;;;;;;;;5126662;27;20430;-73
2022/05/17 01:55:07;;;;;;;1.42;0.90;;;;;;;;;;5128134;27;20058;-74
2022/05/17 01:57:38;;;;;;;0.95;0.70;;;;;;;;;;5128192;27;20058;-73
2022/05/17 02:00:11;;;;;;;2.22;0.70;;;;;;;;;;5129088;27;20050;-74
2022/05/17 02:02:41;;;;;;;3.60;0.95;;;;;;;;;;5127929;27;20433;-73
2022/05/17 02:05:18;;;;;;;2.65;1.02;;;;;;;;;;5127800;27;20038;-74
2022/05/17 02:07:50;;;;;;;3.42;1.15;;;;;;;;;;5125993;27;20043;-73
2022/05/17 02:10:25;;;;;;;1.13;0.80;;;;;;;;;;5128083;27;20528;-74
2022/05/17 02:12:58;;;;;;;2.30;0.85;;;;;;;;;;5128539;27;20734;-72
2022/05/17 02:15:29;;;;;;;1.48;0.80;;;;;;;;;;5127309;27;20417;-73
2022/05/17 02:17:58;;;;;;;3.33;1.05;;;;;;;;;;5127513;27;20687;-73
2022/05/17 02:20:30;;;;;;;1.55;0.70;;;;;;;;;;5126555;27;20047;-73
2022/05/17 02:23:02;;;;;;;1.55;0.70;;;;;;;;;;5126834;27;20054;-74
2022/05/17 02:25:32;;;;;;;0.80;0.80;;;;;;;;;;5125959;27;20058;-73
2022/05/17 02:28:11;;;;;;;2.17;0.80;;;;;;;;;;5127004;27;20048;-73
2022/05/17 02:30:42;;;;;;;1.40;0.90;;;;;;;;;;5128417;27;20051;-73
2022/05/17 02:33:13;;;;;;;0.50;0.50;;;;;;;;;;5127755;27;20042;-73
2022/05/17 02:35:45;;;;;;;2.90;0.77;;;;;;;;;;5127213;27;20078;-74
2022/05/17 02:38:15;;;;;;;;;;;;;;;;;;5128536;27;20047;-74
2022/05/17 02:40:44;;;;;;;4.47;0.82;;;;;;;;;;5128085;27;20433;-74
2022/05/17 02:43:15;;;;;;;1.33;0.80;;;;;;;;;;5127447;27;20484;-74
2022/05/17 02:45:46;;;;;;;1.98;1.00;;;;;;;;;;5127359;27;20406;-74
2022/05/17 02:48:16;;;;;;;2.92;0.80;;;;;;;;;;5127323;27;20051;-74
2022/05/17 02:50:45;;;;;;;2.38;0.80;;;;;;;;;;5127353;27;20043;-74
2022/05/17 02:53:15;;;;;;;2.25;0.70;;;;;;;;;;5127138;27;20047;-74
2022/05/17 02:55:45;;;;;;;5.03;0.60;;;;;;;;;;5124986;27;20058;-73
2022/05/17 02:58:15;;;;;;;3.53;0.77;;;;;;;;;;5127512;27;20043;-72
2022/05/17 03:00:47;;;;;;;1.10;0.70;;;;;;;;;;5127173;27;20062;-74
2022/05/17 03:03:18;;;;;;;1.30;0.70;;;;;;;;;;5126295;28;20059;-74
2022/05/17 03:06:19;;;;;;;1.58;0.88;;;;;;;;;;5127140;28;20054;-74
2022/05/17 03:08:51;;;;;;;1.50;0.52;;;;;;;;;;5126361;27;20050;-72
2022/05/17 03:11:21;;;;;;;2.88;0.70;;;;;;;;;;5126594;27;20043;-73
2022/05/17 03:13:50;;;;;;;1.80;0.80;;;;;;;;;;5126773;28;20716;-73
2022/05/17 03:16:27;;;;;;;2.30;0.82;;;;;;;;;;5127037;27;20627;-72
2022/05/17 03:18:58;;;;;;;0.70;0.63;;;;;;;;;;5127677;27;20035;-74
2022/05/17 03:21:29;;;;;;;1.55;0.82;;;;;;;;;;5131583;27;20060;-72
2022/05/17 03:24:00;;;;;;;1.70;0.93;;;;;;;;;;5112498;27;20529;-72
2022/05/17 03:26:30;;;;;;;;;;;;;;;;;;5131393;27;20936;-74
2022/05/17 03:28:59;;;;;;;0.73;0.65;;;;;;;;;;5129339;27;19923;-73
2022/05/17 03:31:29;;;;;;;1.33;0.50;;;;;;;;;;5130802;27;20058;-73
2022/05/17 03:33:59;;;;;;;1.20;0.65;;;;;;;;;;5130465;27;20051;-72
2022/05/17 03:36:29;;;;;;;2.67;0.70;;;;;;;;;;5130632;27;20047;-72
2022/05/17 03:38:59;;;;;;;2.25;0.80;;;;;;;;;;5130382;27;20047;-72
2022/05/17 03:41:28;;;;;;;1.05;0.47;;;;;;;;;;5130181;27;20067;-72
2022/05/17 03:43:59;;;;;;;1.15;0.60;;;;;;;;;;5129871;27;20493;-73
2022/05/17 03:46:29;;;;;;;5.18;0.90;;;;;;;;;;5130203;27;20409;-74
2022/05/17 03:49:00;;;;;;;1.95;0.63;;;;;;;;;;5129346;27;20390;-73
2022/05/17 03:51:30;;;;;;;1.40;0.60;;;;;;;;;;5130498;27;20058;-72
2022/05/17 03:54:00;;;;;;;1.05;0.85;;;;;;;;;;5130720;27;20051;-73
2022/05/17 03:56:30;;;;;;;3.88;0.80;;;;;;;;;;5130279;27;20051;-72
2022/05/17 03:59:00;;;;;;;1.58;0.60;;;;;;;;;;5129729;27;20524;-72
2022/05/17 04:01:30;;;;;;;1.38;0.68;;;;;;;;;;5130059;27;20043;-73
2022/05/17 04:04:00;;;;;;;1.33;0.88;;;;;;;;;;5130372;27;20043;-72
2022/05/17 04:06:30;;;;;;;2.03;0.80;;;;;;;;;;5130362;27;20043;-73
2022/05/17 04:09:00;;;;;;;1.08;0.77;;;;;;;;;;5130087;27;20054;-73
2022/05/17 04:11:30;;;;;;;0.45;0.43;;;;;;;;;;5130183;27;20058;-73
2022/05/17 04:14:00;;;;;;;1.23;0.55;;;;;;;;;;5128318;27;20047;-74
2022/05/17 04:16:35;;;;;;;1.45;0.57;;;;;;;;;;5130967;27;20047;-74
2022/05/17 04:19:06;;;;;;;6.15;0.70;;;;;;;;;;5130288;27;20402;-72
2022/05/17 04:21:36;;;;;;;2.40;0.60;;;;;;;;;;5129464;27;20050;-71
2022/05/17 04:24:06;;;;;;;4.30;0.77;;;;;;;;;;5129850;27;20058;-72
2022/05/17 04:26:36;;;;;;;0.85;0.60;;;;;;;;;;5129388;27;20039;-73
2022/05/17 04:29:07;;;;;;;0.98;0.50;;;;;;;;;;5129669;27;20050;-73
2022/05/17 04:31:37;;;;;;;2.57;0.70;;;;;;;;;;5128399;27;21043;-73
2022/05/17 04:34:07;;;;;;;2.78;0.60;;;;;;;;;;5128996;27;20273;-72
2022/05/17 04:36:37;;;;;;;1.42;0.80;;;;;;;;;;5129510;27;20047;-73
2022/05/17 04:39:07;;;;;;;1.35;0.60;;;;;;;;;;5130643;27;20054;-73
2022/05/17 04:41:37;;;;;;;1.25;0.57;;;;;;;;;;5130175;27;20043;-73
2022/05/17 04:44:07;;;;;;;0.43;0.40;;;;;;;;;;5129483;27;20051;-72
2022/05/17 04:46:36;;;;;;;1.38;0.60;;;;;;;;;;5128490;27;20054;-72
2022/05/17 04:49:07;;;;;;;2.15;0.60;;;;;;;;;;5129003;27;20051;-73
2022/05/17 04:51:38;;;;;;;1.20;0.70;;;;;;;;;;5127823;27;20426;-73
2022/05/17 04:54:08;;;;;;;0.47;0.40;;;;;;;;;;5128811;27;20058;-72
2022/05/17 04:56:38;;;;;;;1.40;0.55;;;;;;;;;;5129521;27;20047;-72
2022/05/17 04:59:07;;;;;;;0.85;0.52;;;;;;;;;;5129061;27;20050;-72
2022/05/17 05:01:38;;;;;;;1.50;0.70;;;;;;;;;;5128728;27;20050;-73
2022/05/17 05:04:09;;;;;;;0.60;0.60;;;;;;;;;;5128797;27;20058;-73
2022/05/17 05:06:39;;;;;;;0.82;0.70;;;;;;;;;;5128877;27;20055;-73
2022/05/17 05:09:11;;;;;;;0.98;0.75;;;;;;;;;;5128700;27;20521;-73
2022/05/17 05:11:43;;;;;;;1.58;0.77;;;;;;;;;;5128961;27;20039;-73
2022/05/17 05:14:13;;;;;;;0.55;0.47;;;;;;;;;;5128679;27;20074;-72
2022/05/17 05:16:43;;;;;;;1.15;0.57;;;;;;;;;;5127747;27;20671;-73
2022/05/17 05:19:12;;;;;;;4.70;0.90;;;;;;;;;;5129094;27;20589;-73
2022/05/17 05:21:43;;;;;;;1.95;0.57;;;;;;;;;;5128280;27;20539;-72
2022/05/17 05:24:13;;;;;;;2.00;0.75;;;;;;;;;;5129251;27;20054;-73
2022/05/17 05:26:43;;;;;;;0.98;0.60;;;;;;;;;;5126672;27;20086;-73
2022/05/17 05:29:13;;;;;;;4.07;0.70;;;;;;;;;;5128236;27;20059;-72
2022/05/17 05:31:43;;;;;;;0.70;0.70;;;;;;;;;;5128776;27;20043;-72
2022/05/17 05:34:13;;;;;;;1.02;0.80;;;;;;;;;;5128344;27;20066;-73
2022/05/17 05:36:44;;;;;;;2.30;1.10;;;;;;;;;;5128581;27;20366;-73
2022/05/17 05:39:15;;;;;;;;;;;;;;;;;;5128374;27;20058;-72
2022/05/17 05:41:45;;;;;;;0.32;0.32;;;;;;;;;;5128241;27;19919;-72
2022/05/17 05:44:14;;;;;;;0.80;0.70;;;;;;;;;;5128454;27;20058;-72
2022/05/17 05:46:44;;;;;;;1.55;0.47;;;;;;;;;;5128286;27;20047;-72
2022/05/17 05:49:15;;;;;;;1.08;0.73;;;;;;;;;;5127293;27;20055;-73
2022/05/17 05:51:46;;;;;;;1.85;0.95;;;;;;;;;;5128339;27;20049;-72
2022/05/17 05:54:17;;;;;;;0.90;0.68;;;;;;;;;;5127819;27;20047;-73
2022/05/17 05:56:47;;;;;;;0.43;0.43;;;;;;;;;;5127968;27;20422;-73
2022/05/17 05:59:17;;;;;;;1.25;0.73;;;;;;;;;;5128423;27;20040;-72
2022/05/17 06:01:47;;;;;;;2.08;0.55;;;;;;;;;;5127744;27;20066;-73
2022/05/17 06:04:17;;;;;;;0.88;0.40;;;;;;;;;;5128097;27;20054;-72
2022/05/17 06:06:56;;;;;;;2.28;0.55;;;;;;;;;;5128404;27;20532;-73
2022/05/17 06:09:28;;;;;;;3.03;0.60;;;;;;;;;;5127487;27;20050;-73
2022/05/17 06:12:00;;;;;;;0.47;0.47;;;;;;;;;;5127861;27;20436;-73
2022/05/17 06:14:30;;;;;;;1.77;0.50;;;;;;;;;;5127923;27;20695;-73
2022/05/17 06:17:00;;;;;;;1.35;0.60;;;;;;;;;;5126032;27;20059;-72
2022/05/17 06:19:32;;;;;;;2.95;0.70;;;;;;;;;;5127438;27;20398;-73
2022/05/17 06:22:03;;;;;;;0.60;0.60;;;;;;;;;;5127903;27;20046;-72
2022/05/17 06:24:33;;;;;;;1.90;0.70;;;;;;;;;;5128333;27;20494;-73
2022/05/17 06:27:04;;;;;;;1.23;0.47;;;;;;;;;;5127427;27;20055;-72
2022/05/17 06:29:33;;;;;;;1.65;0.47;;;;;;;;;;5128066;27;20498;-73
2022/05/17 06:32:03;;;;;;;0.52;0.50;;;;;;;;;;5127485;27;20051;-73
2022/05/17 06:34:33;;;;;;;1.83;0.88;;;;;;;;;;5127077;27;20047;-73
2022/05/17 06:37:04;;;;;;;3.42;0.60;;;;;;;;;;5126947;27;20506;-72
2022/05/17 06:39:34;;;;;;;0.82;0.50;;;;;;;;;;5125389;27;20051;-72
2022/05/17 06:42:05;;;;;;;0.45;0.45;;;;;;;;;;5127203;27;20054;-73
2022/05/17 06:44:37;;;;;;;2.10;0.80;;;;;;;;;;5127940;27;20054;-73
2022/05/17 06:47:08;;;;;;;1.48;0.60;;;;;;;;;;5127460;27;20281;-72
2022/05/17 06:49:39;;;;;;;1.00;0.45;;;;;;;;;;5127370;27;20413;-72
2022/05/17 06:52:09;;;;;;;1.10;0.70;;;;;;;;;;5127287;27;20043;-73
2022/05/17 06:54:43;;;;;;;0.40;0.40;;;;;;;;;;5127021;27;20043;-72
2022/05/17 06:57:16;;;;;;;0.82;0.45;;;;;;;;;;5127593;27;20047;-73
2022/05/17 06:59:46;;;;;;;0.93;0.50;;;;;;;;;;5127129;27;20054;-73
2022/05/17 07:02:16;;;;;;;0.50;0.50;;;;;;;;;;5127223;27;20047;-72
2022/05/17 07:04:46;;;;;;;1.00;0.40;;;;;;;;;;5127984;28;20406;-72
2022/05/17 07:07:16;;;;;;;1.35;0.73;;;;;;;;;;5127154;28;20051;-73
2022/05/17 07:13:07;;;;;;;0.80;0.60;;;;;;;;;;5127445;28;20053;-72
2022/05/17 07:15:24;;;;;;;0.52;0.50;;;;;;;;;;5127908;27;20047;-73
2022/05/17 07:17:54;;;;;;;3.83;0.93;;;;;;;;;;5127692;27;20051;-72
2022/05/17 07:20:24;;;;;;;1.55;0.60;;;;;;;;;;5126883;28;20502;-73
2022/05/17 07:22:54;;;;;;;1.50;0.60;;;;;;;;;;5127440;28;20062;-73
2022/05/17 07:25:23;;;;;;;0.75;0.60;;;;;;;;;;5126924;27;20051;-73
2022/05/17 07:27:53;;;;;;;0.60;0.60;;;;;;;;;;5127346;28;20062;-74
2022/05/17 07:30:23;;;;;;;0.85;0.50;;;;;;;;;;5126651;28;20062;-73
2022/05/17 07:32:53;;;;;;;1.15;0.70;;;;;;;;;;5127870;28;20062;-73
2022/05/17 07:35:23;;;;;;;0.50;0.50;;;;;;;;;;5126402;27;20043;-73
2022/05/17 07:37:53;;;;;;;1.73;1.15;;;;;;;;;;5127319;28;20410;-73
2022/05/17 07:40:23;;;;;;;1.20;0.65;;;;;;;;;;5126910;28;20047;-73
2022/05/17 07:42:54;;;;;;;0.55;0.45;;;;;;;;;;5125706;27;20047;-74
2022/05/17 07:45:24;;;;;;;;;;;;;;;;;;5123804;27;20047;-72
2022/05/17 07:47:54;;;;;;;0.85;0.47;;;;;;;;;;5122891;27;19927;-73
2022/05/17 07:50:24;;;;;;;0.82;0.60;;;;;;;;;;5122368;28;20050;-73
2022/05/17 07:52:53;;;;;;;0.95;0.68;;;;;;;;;;5126809;27;20047;-72
2022/05/17 07:55:23;;;;;;;2.55;0.77;;;;;;;;;;5126834;27;20544;-73
2022/05/17 07:57:53;;;;;;;1.10;0.88;;;;;;;;;;5126424;28;20055;-72
2022/05/17 08:00:23;;;;;;;1.63;0.65;;;;;;;;;;5127318;28;20043;-72
2022/05/17 08:02:56;;;;;;;1.35;0.80;;;;;;;;;;5126347;27;20049;-73
2022/05/17 08:05:27;;;;;;;1.00;0.88;;;;;;;;;;5127174;27;20043;-74
2022/05/17 08:07:59;;;;;;;1.73;0.75;;;;;;;;;;5130554;27;20055;-72
2022/05/17 08:10:30;;;;;;;3.63;0.90;;;;;;;;;;5130182;27;20043;-73
2022/05/17 08:13:00;;;;;;;1.63;0.73;;;;;;;;;;5129774;27;20409;-72
2022/05/17 08:15:31;;;;;;;2.95;0.80;;;;;;;;;;5129890;27;20039;-73
2022/05/17 08:18:02;;;;;;;4.18;0.90;;;;;;;;;;5130207;27;20043;-72
2022/05/17 08:20:32;;;;;;;;;;;;;;;;;;5130809;27;20046;-73
2022/05/17 08:23:02;;;;;;;1.08;0.60;;;;;;;;;;5130619;27;19923;-73
2022/05/17 08:28:22;;;;;;;1.55;0.65;;;;;;;;;;5114341;27;20422;-73
2022/05/17 08:30:53;;;;;;;0.57;0.45;;;;;;;;;;5130495;27;20052;-73
2022/05/17 08:33:24;;;;;;;2.15;0.70;;;;;;;;;;5129877;27;20070;-73
2022/05/17 08:35:57;;;;;;;1.80;0.75;;;;;;;;;;5129517;27;20047;-73
2022/05/17 08:38:38;;;;;;;2.50;1.15;;;;;;;;;;5129866;27;20529;-74
2022/05/17 08:41:47;;;;;;;1.80;0.68;;;;;;;;;;5130002;27;20046;-73
2022/05/17 08:44:32;;;;;;;1.45;0.70;;;;;;;;;;5130069;27;20051;-73
2022/05/17 08:47:11;;;;;;;0.50;0.50;;;;;;;;;;5129538;27;20506;-74
2022/05/17 08:50:08;;;;;;;3.35;0.68;;;;;;;;;;5129465;27;20402;-73
2022/05/17 08:52:40;;;;;;;1.52;0.63;;;;;;;;;;5127718;27;20405;-73
2022/05/17 08:55:41;;;;;;;0.60;0.50;;;;;;;;;;5129438;27;20054;-73
2022/05/17 08:58:22;;;;;;;1.00;0.60;;;;;;;;;;5114958;27;20063;-73
2022/05/17 09:00:59;;;;;;;0.77;0.55;;;;;;;;;;5129123;27;20055;-74
2022/05/17 09:03:39;;;;;;;1.42;1.00;;;;;;;;;;5129708;27;20058;-73
2022/05/17 09:06:16;;;;;;;3.40;0.50;;;;;;;;;;5130240;27;20046;-73
2022/05/17 09:09:04;;;;;;;1.85;0.52;;;;;;;;;;5129387;27;20031;-74
2022/05/17 09:12:03;;;;;;;2.15;0.65;;;;;;;;;;5128841;27;20047;-74
2022/05/17 09:14:37;;;;;;;1.00;0.60;;;;;;;;;;5129718;27;20043;-73
2022/05/17 09:17:16;;;;;;;3.03;1.58;;;;;;;;;;5129009;27;20043;-73
2022/05/17 09:19:50;;;;;;;3.53;0.85;;;;;;;;;;5128950;27;20043;-72
2022/05/17 09:22:21;;;;;;;0.52;0.50;;;;;;;;;;5129349;27;20051;-73
2022/05/17 09:25:01;;;;;;;;;;;;;;;;;;5127308;27;20051;-74
2022/05/17 09:27:38;;;;;;;0.93;0.63;;;;;;;;;;5130062;27;19923;-74
2022/05/17 09:30:23;;;;;;;0.68;0.63;;;;;;;;;;5128948;27;20058;-73
2022/05/17 09:33:14;;;;;;;1.77;0.50;;;;;;;;;;5128540;27;20043;-73
2022/05/17 09:36:05;;;;;;;8.00;0.90;;;;;;;;;;5128644;27;20043;-73
2022/05/17 09:38:38;;;;;;;1.57;0.53;;;;;;;;;;5128809;27;20054;-73
2022/05/17 09:41:14;;;;;;;3.22;0.80;;;;;;;;;;5128217;27;20039;-73
2022/05/17 09:43:58;;;;;;;2.25;0.82;;;;;;;;;;5128948;27;20043;-73
2022/05/17 09:46:43;;;;;;;2.83;0.70;;;;;;;;;;5127628;27;20043;-75
2022/05/17 09:55:22;;;;;;;2.65;1.40;;;;;;;;;;5133713;27;20513;-73
2022/05/17 09:58:01;;;;;;;;;;;;;;;;;;5154309;27;20042;-75
2022/05/17 10:00:42;;;;;;;2.65;0.90;;;;;;;;;;5155269;27;19924;-75
2022/05/17 10:03:16;;;;;;;7.90;1.48;;;;;;;;;;5154257;27;20043;-73
2022/05/17 10:05:49;;;;;;;4.75;2.55;;;;;;;;;;5131085;27;20046;-73
2022/05/17 10:08:41;;;;;;;1.38;0.60;;;;;;;;;;5127623;27;20050;-73
2022/05/17 10:11:25;;;;;;;2.05;0.65;;;;;;;;;;5128344;27;20047;-73
2022/05/17 10:14:13;;;;;;;1.70;0.60;;;;;;;;;;5125654;27;20160;-73
2022/05/17 10:17:15;;;;;;;2.35;0.85;;;;;;;;;;5128215;27;20047;-74
2022/05/17 10:19:57;;;;;;;1.27;0.63;;;;;;;;;;5094180;27;20078;-74
2022/05/17 10:22:34;;;;;;;7.60;1.15;;;;;;;;;;5127564;27;20044;-78
2022/05/17 10:25:25;;;;;;;7.22;1.23;;;;;;;;;;5127160;27;20413;-73
2022/05/17 10:28:08;;;;;;;;;;;;;;;;;;5128603;27;20051;-74
2022/05/17 10:30:57;;;;;;;1.13;0.50;;;;;;;;;;5125366;27;19923;-76
2022/05/17 10:33:39;;;;;;;4.68;0.90;;;;;;;;;;5127200;27;20050;-73
2022/05/17 10:36:23;;;;;;;3.33;0.65;;;;;;;;;;5127506;27;20050;-74
2022/05/17 10:39:16;;;;;;;3.78;0.70;;;;;;;;;;5127655;27;20043;-73
2022/05/17 10:41:46;;;;;;;2.17;0.80;;;;;;;;;;5127411;27;20430;-73
2022/05/17 10:44:22;;;;;;;4.63;0.75;;;;;;;;;;5126766;27;20058;-74
2022/05/17 10:47:03;;;;;;;1.42;0.45;;;;;;;;;;5126958;27;20043;-72
2022/05/17 10:49:50;;;;;;;3.67;0.95;;;;;;;;;;5127143;27;20043;-73
2022/05/17 10:52:36;;;;;;;15.48;1.27;;;;;;;;;;5127034;27;20047;-76
2022/05/17 10:55:20;;;;;;;3.17;0.90;;;;;;;;;;5127162;27;20502;-73
2022/05/17 10:57:55;;;;;;;4.25;0.80;;;;;;;;;;5126933;27;20051;-73
2022/05/17 11:00:49;;;;;;;4.93;0.75;;;;;;;;;;5127140;27;20120;-74
2022/05/17 11:03:44;;;;;;;1.65;0.93;;;;;;;;;;5125896;27;20050;-74
2022/05/17 11:06:51;;;;;;;2.33;0.70;;;;;;;;;;5127423;27;20047;-74
2022/05/17 11:09:36;;;;;;;2.53;1.00;;;;;;;;;;5126877;28;20533;-73
2022/05/17 11:12:15;;;;;;;1.70;0.77;;;;;;;;;;5127199;27;20048;-73
2022/05/17 11:15:03;;;;;;;3.75;1.88;;;;;;;;;;5127214;27;20403;-74
2022/05/17 11:17:58;;;;;;;1.75;1.17;;;;;;;;;;5127976;27;20043;-76
2022/05/17 11:20:44;;;;;;;3.40;0.93;;;;;;;;;;5126801;28;20050;-75
2022/05/17 11:23:45;;;;;;;3.53;0.88;;;;;;;;;;5127624;28;20043;-78
2022/05/17 11:26:59;;;;;;;1.80;0.93;;;;;;;;;;5127156;27;20061;-75
2022/05/17 11:30:08;;;;;;;4.32;1.27;;;;;;;;;;5089512;27;20055;-74
2022/05/17 11:33:00;;;;;;;2.55;1.00;;;;;;;;;;5127205;27;20540;-73
2022/05/17 11:35:31;;;;;;;1.30;1.20;;;;;;;;;;5126728;28;20423;-76
2022/05/17 11:38:06;;;;;;;3.22;1.23;;;;;;;;;;5126595;27;20474;-75
2022/05/17 11:40:51;;;;;;;1.52;1.30;;;;;;;;;;5128743;27;20433;-75
2022/05/17 11:43:41;;;;;;;7.68;0.88;;;;;;;;;;5130639;27;20043;-75
2022/05/17 11:46:42;;;;;;;1.42;1.00;;;;;;;;;;5131316;27;20047;-75
2022/05/17 11:49:12;;;;;;;2.22;0.90;;;;;;;;;;5127349;27;20058;-74
2022/05/17 11:51:57;;;;;;;2.38;0.90;;;;;;;;;;5130400;27;20035;-75
2022/05/17 11:54:45;;;;;;;1.42;0.60;;;;;;;;;;5138907;27;20050;-74
2022/05/17 11:57:24;;;;;;;3.60;1.00;;;;;;;;;;5129773;27;20081;-74
2022/05/17 11:59:55;;;;;;;1.88;0.80;;;;;;;;;;5129654;27;20070;-74
2022/05/17 12:02:44;;;;;;;3.58;0.98;;;;;;;;;;5129742;27;20058;-74
2022/05/17 12:05:37;;;;;;;1.77;0.80;;;;;;;;;;5130032;27;20414;-76
2022/05/17 12:08:29;;;;;;;5.30;0.98;;;;;;;;;;5118452;27;20067;-74
2022/05/17 12:11:01;;;;;;;;;;;;;;;;;;5129576;27;20438;-75
2022/05/17 12:13:41;;;;;;;4.60;1.08;;;;;;;;;;5130463;27;20397;-74
2022/05/17 12:16:18;;;;;;;5.35;1.45;;;;;;;;;;5129619;27;20394;-73
2022/05/17 12:18:54;;;;;;;4.25;1.27;;;;;;;;;;5129753;27;20062;-75
2022/05/17 12:21:48;;;;;;;3.60;1.00;;;;;;;;;;5129998;27;20031;-73
2022/05/17 12:24:25;;;;;;;4.13;1.70;;;;;;;;;;5129322;27;20050;-74
2022/05/17 12:27:16;;;;;;;4.88;1.50;;;;;;;;;;5129047;27;20069;-75
2022/05/17 12:33:26;;;;;;;4.05;1.08;;;;;;;;;;5129609;27;20510;-76
2022/05/17 12:36:10;;;;;;;;;;;;;;;;;;5127710;27;20054;-74
2022/05/17 12:44:28;;;;;;;2.17;1.13;;;;;;;;;;5129478;27;20051;-75
2022/05/17 12:46:58;;;;;;;11.35;1.55;;;;;;;;;;5128784;27;20054;-75
2022/05/17 12:49:31;;;;;;;5.25;1.02;;;;;;;;;;5129581;27;20050;-74
2022/05/17 12:52:14;;;;;;;7.30;1.25;;;;;;;;;;5129066;27;20043;-75
2022/05/17 12:54:50;;;;;;;5.00;0.80;;;;;;;;;;5127707;27;20410;-77
2022/05/17 12:57:25;;;;;;;5.53;0.80;;;;;;;;;;5128328;27;20054;-76
2022/05/17 13:00:34;;;;;;;3.80;0.80;;;;;;;;;;5129557;27;20042;-74
2022/05/17 13:03:16;;;;;;;14.30;2.17;;;;;;;;;;5045269;28;20044;-75
2022/05/17 13:05:49;;;;;;;3.53;1.10;;;;;;;;;;5028116;28;20420;-74
2022/05/17 13:08:30;;;;;;;4.07;1.10;;;;;;;;;;5102633;27;20132;-74
2022/05/17 13:11:18;;;;;;;3.05;0.70;;;;;;;;;;5128185;27;20050;-74
2022/05/17 13:13:48;;;;;;;3.63;1.00;;;;;;;;;;5127626;27;20290;-77
2022/05/17 13:16:25;;;;;;;2.42;0.88;;;;;;;;;;5128868;27;20054;-76
2022/05/17 13:18:58;;;;;;;8.98;2.88;;;;;;;;;;5128914;27;20046;-76
2022/05/17 13:21:40;;;;;;;2.30;0.80;;;;;;;;;;5128227;27;20043;-73
2022/05/17 13:24:38;;;;;;;4.00;0.90;;;;;;;;;;5127468;27;20393;-77
2022/05/17 13:27:20;;;;;;;4.43;1.13;;;;;;;;;;5128817;27;20441;-75
2022/05/17 13:30:00;;;;;;;4.25;0.80;;;;;;;;;;5127581;27;20050;-74
2022/05/17 13:32:43;;;;;;;5.93;1.23;;;;;;;;;;5128659;27;20047;-76
2022/05/17 13:35:29;;;;;;;7.53;1.20;;;;;;;;;;5128394;27;21005;-74
2022/05/17 13:38:02;;;;;;;14.85;2.25;;;;;;;;;;5127049;27;20051;-75
2022/05/17 13:40:51;;;;;;;6.35;1.50;;;;;;;;;;5128480;27;20061;-75
2022/05/17 13:43:34;;;;;;;3.42;1.00;;;;;;;;;;5128818;27;20371;-73
2022/05/17 13:46:21;;;;;;;5.13;1.10;;;;;;;;;;5127479;27;20039;-74
2022/05/17 13:49:02;;;;;;;1.35;0.90;;;;;;;;;;5128173;27;20058;-73
2022/05/17 13:51:44;;;;;;;6.78;1.48;;;;;;;;;;5127997;27;20039;-79
2022/05/17 13:54:34;;;;;;;8.82;1.17;;;;;;;;;;5128333;27;20035;-74
2022/05/17 13:57:09;;;;;;;2.85;1.23;;;;;;;;;;5128229;27;20051;-75
2022/05/17 13:59:43;;;;;;;4.40;1.27;;;;;;;;;;5128096;27;20039;-74
2022/05/17 14:02:41;;;;;;;2.40;0.95;;;;;;;;;;5127843;27;20054;-73
2022/05/17 14:05:27;;;;;;;6.35;1.05;;;;;;;;;;5126647;27;20057;-74
2022/05/17 14:14:02;;;;;;;4.95;0.85;;;;;;;;;;5126523;27;20055;-73
2022/05/17 14:16:32;;;;;;;9.98;1.27;;;;;;;;;;5127241;27;20043;-73
2022/05/17 14:19:06;;;;;;;2.25;0.75;;;;;;;;;;5126381;27;20418;-72
2022/05/17 14:21:37;;;;;;;3.13;1.05;;;;;;;;;;5127490;27;20047;-73
2022/05/17 14:24:09;;;;;;;2.90;0.90;;;;;;;;;;5127785;27;20375;-73
2022/05/17 14:26:39;;;;;;;;;;;;;;;;;;5128191;27;20043;-75
2022/05/17 14:29:09;;;;;;;3.80;1.10;;;;;;;;;;5126251;27;20302;-74
2022/05/17 14:31:42;;;;;;;2.80;0.83;;;;;;;;;;5127318;27;20042;-73
2022/05/17 14:34:33;;;;;;;6.55;1.05;;;;;;;;;;5126822;27;20417;-73
2022/05/17 14:37:05;;;;;;;9.52;0.98;;;;;;;;;;5127434;27;20039;-74
2022/05/17 14:39:36;;;;;;;2.63;0.77;;;;;;;;;;5127226;27;20046;-73
2022/05/17 14:42:07;;;;;;;3.83;1.13;;;;;;;;;;5127331;27;20062;-74
2022/05/17 14:44:37;;;;;;;3.70;0.73;;;;;;;;;;5125899;27;20050;-74
2022/05/17 14:47:14;;;;;;;2.67;1.00;;;;;;;;;;5126717;27;20521;-74
2022/05/17 14:49:56;;;;;;;13.70;1.73;;;;;;;;;;5127659;27;20054;-74
2022/05/17 14:52:29;;;;;;;4.55;0.90;;;;;;;;;;5127364;27;20070;-73
2022/05/17 14:55:20;;;;;;;5.97;1.35;;;;;;;;;;5127514;27;20406;-73
2022/05/17 14:57:52;;;;;;;7.22;1.15;;;;;;;;;;5126797;27;20997;-73
2022/05/17 15:00:25;;;;;;;9.03;1.50;;;;;;;;;;5126999;27;20047;-82
2022/05/17 15:03:20;;;;;;;2.55;1.05;;;;;;;;;;5126497;27;20046;-74
2022/05/17 15:05:50;;;;;;;5.50;0.70;;;;;;;;;;5126976;27;20604;-73
2022/05/17 15:08:20;;;;;;;6.30;1.50;;;;;;;;;;5126896;28;20047;-79
2022/05/17 15:10:50;;;;;;;7.03;1.48;;;;;;;;;;5127209;28;20047;-74
2022/05/17 15:13:20;;;;;;;3.28;1.20;;;;;;;;;;5126739;27;20602;-74
2022/05/17 15:15:54;;;;;;;6.70;1.58;;;;;;;;;;5129517;27;20628;-75
2022/05/17 15:18:26;;;;;;;2.80;0.85;;;;;;;;;;5129444;27;20623;-73
2022/05/17 15:20:57;;;;;;;4.45;1.70;;;;;;;;;;5131920;27;20054;-73
2022/05/17 15:23:34;;;;;;;2.50;1.20;;;;;;;;;;5129171;27;20054;-73
2022/05/17 15:26:07;;;;;;;5.57;1.20;;;;;;;;;;5131501;27;20035;-73
2022/05/17 15:28:38;;;;;;;8.65;1.25;;;;;;;;;;5130388;27;20062;-74
2022/05/17 15:31:13;;;;;;;6.55;1.30;;;;;;;;;;5131256;27;20051;-74
2022/05/17 15:33:44;;;;;;;9.60;1.48;;;;;;;;;;5131010;27;20046;-73
2022/05/17 15:36:17;;;;;;;7.30;1.00;;;;;;;;;;5130729;27;20744;-74
2022/05/17 15:38:47;;;;;;;2.67;0.95;;;;;;;;;;5130089;27;20039;-74
2022/05/17 15:41:17;;;;;;;2.10;0.90;;;;;;;;;;5131348;27;20066;-74
2022/05/17 15:43:48;;;;;;;;;;;;;;;;;;5131237;27;20051;-73
2022/05/17 15:46:19;;;;;;;1.90;0.90;;;;;;;;;;5130905;27;19923;-74
2022/05/17 15:54:38;;;;;;;4.55;0.93;;;;;;;;;;5130162;27;20061;-74
2022/05/17 15:57:09;;;;;;;7.57;2.17;;;;;;;;;;5130026;27;20555;-73
2022/05/17 15:59:40;;;;;;;4.45;1.33;;;;;;;;;;5130757;27;20502;-73
2022/05/17 16:02:10;;;;;;;6.80;1.35;;;;;;;;;;5129949;27;20051;-73
2022/05/17 16:04:57;;;;;;;5.45;2.95;;;;;;;;;;5130829;27;20039;-73
2022/05/17 16:10:19;;;;;;;4.57;1.30;;;;;;;;;;5130103;27;20642;-75
2022/05/17 16:12:49;;;;;;;2.15;0.95;;;;;;;;;;5130038;27;20054;-73